Time;durP1;ratioP1;P1;durP2;ratioP2;P2;SDS_P1;SDS_P2;PMS_P1;PMS_P2;Temp;Humidity;BMP_temperature;BMP_pressure;BME280_temperature;BME280_humidity;BME280_pressure;Samples;Min_cycle;Max_cycle;Signal;HPM_P1;HPM_P2
2022/04/28 00:01:36;;;;;;;6.93;5.45;;;;;;;;;;12655446;23;20204;-70
2022/04/28 00:06:38;;;;;;;11.10;5.90;;;;;;;;;;12655738;23;20707;-70
2022/04/28 00:11:39;;;;;;;5.82;5.22;;;;;;;;;;12655533;23;20184;-69
2022/04/28 00:16:40;;;;;;;6.55;5.32;;;;;;;;;;12630026;23;20192;-69
2022/04/28 00:21:41;;;;;;;6.20;5.57;;;;;;;;;;12641907;23;20507;-69
2022/04/28 00:26:42;;;;;;;6.88;5.22;;;;;;;;;;12655600;23;20201;-69
2022/04/28 00:31:43;;;;;;;7.78;5.75;;;;;;;;;;12604701;23;20207;-69
2022/04/28 00:36:44;;;;;;;8.27;5.47;;;;;;;;;;12657054;23;20622;-69
2022/04/28 00:41:45;;;;;;;7.15;6.50;;;;;;;;;;12655428;23;20614;-70
2022/04/28 00:46:46;;;;;;;7.65;6.38;;;;;;;;;;12627900;23;20220;-70
2022/04/28 00:51:48;;;;;;;9.35;5.97;;;;;;;;;;12617845;23;20224;-69
2022/04/28 00:56:49;;;;;;;9.82;6.22;;;;;;;;;;12629107;23;20192;-69
2022/04/28 01:01:50;;;;;;;8.40;6.55;;;;;;;;;;12626560;23;20208;-69
2022/04/28 01:06:52;;;;;;;14.90;6.35;;;;;;;;;;12630737;23;20259;-69
2022/04/28 01:11:53;;;;;;;8.65;6.85;;;;;;;;;;12630658;23;20231;-69
2022/04/28 01:17:02;;;;;;;7.47;6.55;;;;;;;;;;12633687;23;20197;-69
2022/04/28 01:22:04;;;;;;;9.73;6.78;;;;;;;;;;12630554;23;20193;-68
2022/04/28 01:27:06;;;;;;;6.80;6.30;;;;;;;;;;12634397;23;20338;-68
2022/04/28 01:32:08;;;;;;;10.68;7.38;;;;;;;;;;12633575;23;20583;-69
2022/04/28 01:37:14;;;;;;;8.18;7.35;;;;;;;;;;12632713;23;20208;-70
2022/04/28 01:42:15;;;;;;;8.07;6.63;;;;;;;;;;12629889;23;20243;-69
2022/04/28 01:47:16;;;;;;;8.32;7.22;;;;;;;;;;12632386;23;20263;-69
2022/04/28 01:58:33;;;;;;;10.48;7.18;;;;;;;;;;12634311;23;20189;-70
2022/04/28 02:03:47;;;;;;;8.02;7.25;;;;;;;;;;12628354;23;20211;-70
2022/04/28 02:08:50;;;;;;;10.65;7.13;;;;;;;;;;12630722;23;20256;-70
2022/04/28 02:13:52;;;;;;;15.05;7.45;;;;;;;;;;12631076;23;20231;-70
2022/04/28 02:18:59;;;;;;;12.60;8.20;;;;;;;;;;12631666;23;20538;-71
2022/04/28 02:24:00;;;;;;;13.57;8.30;;;;;;;;;;12631265;23;20197;-70
2022/04/28 02:29:01;;;;;;;11.20;8.45;;;;;;;;;;12604972;23;20185;-70
2022/04/28 02:34:08;;;;;;;9.05;8.02;;;;;;;;;;12629869;23;20197;-70
2022/04/28 02:39:14;;;;;;;8.38;7.20;;;;;;;;;;12630644;23;20213;-70
2022/04/28 02:44:18;;;;;;;9.88;7.95;;;;;;;;;;12627669;23;20688;-70
2022/04/28 02:49:20;;;;;;;11.43;8.30;;;;;;;;;;12632764;23;20185;-70
2022/04/28 02:54:21;;;;;;;13.13;7.82;;;;;;;;;;12631143;23;20188;-70
2022/04/28 02:59:23;;;;;;;10.18;7.68;;;;;;;;;;12631002;23;20627;-70
2022/04/28 03:04:26;;;;;;;12.35;7.85;;;;;;;;;;12631032;23;20698;-70
2022/04/28 03:14:48;;;;;;;11.85;8.13;;;;;;;;;;12628569;23;20623;-71
2022/04/28 03:19:49;;;;;;;9.85;8.23;;;;;;;;;;12656099;23;20187;-71
2022/04/28 03:24:50;;;;;;;10.55;8.43;;;;;;;;;;12627461;23;20196;-70
2022/04/28 03:29:51;;;;;;;12.27;8.30;;;;;;;;;;12626429;23;20216;-71
2022/04/28 03:34:53;;;;;;;8.18;6.60;;;;;;;;;;12627388;23;20666;-71
2022/04/28 03:39:54;;;;;;;12.98;7.72;;;;;;;;;;12628474;23;20191;-71
2022/04/28 03:44:56;;;;;;;15.25;7.65;;;;;;;;;;12628236;23;20227;-71
2022/04/28 03:49:57;;;;;;;10.35;8.00;;;;;;;;;;12658129;23;20181;-71
2022/04/28 03:54:58;;;;;;;6.85;5.72;;;;;;;;;;12656497;23;20180;-71
2022/04/28 04:00:02;;;;;;;16.42;7.15;;;;;;;;;;12678272;23;20188;-70
2022/04/28 04:05:07;;;;;;;10.15;7.45;;;;;;;;;;12655561;23;20584;-70
2022/04/28 04:10:09;;;;;;;11.02;8.23;;;;;;;;;;12652772;23;20185;-70
2022/04/28 04:15:14;;;;;;;10.90;7.55;;;;;;;;;;12678208;23;20196;-71
2022/04/28 04:20:27;;;;;;;10.20;7.05;;;;;;;;;;12652026;23;20240;-71
2022/04/28 04:25:28;;;;;;;14.95;7.45;;;;;;;;;;12678163;23;20196;-70
2022/04/28 04:35:51;;;;;;;10.57;7.88;;;;;;;;;;12655099;23;20199;-71
2022/04/28 04:40:52;;;;;;;12.13;7.80;;;;;;;;;;12678638;23;20188;-70
2022/04/28 04:45:53;;;;;;;12.82;7.30;;;;;;;;;;12681040;23;20252;-71
2022/04/28 04:51:13;;;;;;;13.18;7.50;;;;;;;;;;12660349;23;20247;-70
2022/04/28 04:56:39;;;;;;;11.98;7.57;;;;;;;;;;12682801;23;20631;-70
2022/04/28 05:01:40;;;;;;;11.70;8.32;;;;;;;;;;12659175;23;20244;-71
2022/04/28 05:07:00;;;;;;;13.90;8.07;;;;;;;;;;12657624;23;20205;-71
2022/04/28 05:12:06;;;;;;;14.85;7.80;;;;;;;;;;12682054;23;20184;-71
2022/04/28 05:17:10;;;;;;;13.00;8.05;;;;;;;;;;12682867;23;20199;-70
2022/04/28 05:22:23;;;;;;;11.23;7.45;;;;;;;;;;12660621;23;20181;-71
2022/04/28 05:27:46;;;;;;;13.43;7.43;;;;;;;;;;12626113;23;20232;-70
2022/04/28 05:33:06;;;;;;;12.13;7.43;;;;;;;;;;12658377;23;20204;-71
2022/04/28 05:38:35;;;;;;;8.82;7.18;;;;;;;;;;12658621;23;20622;-71
2022/04/28 05:48:56;;;;;;;16.75;8.15;;;;;;;;;;12655074;23;20184;-71
2022/04/28 05:53:57;;;;;;;10.68;7.05;;;;;;;;;;12681180;23;20192;-71
2022/04/28 05:58:58;;;;;;;8.85;7.50;;;;;;;;;;12684919;23;20659;-72
2022/04/28 06:04:22;;;;;;;13.57;7.47;;;;;;;;;;12658680;23;20287;-71
2022/04/28 06:09:24;;;;;;;11.10;7.25;;;;;;;;;;12661026;23;20693;-71
2022/04/28 06:14:26;;;;;;;11.85;7.85;;;;;;;;;;12682188;23;20184;-70
2022/04/28 06:19:50;;;;;;;10.40;7.32;;;;;;;;;;12644342;23;20512;-71
2022/04/28 06:25:20;;;;;;;13.68;7.68;;;;;;;;;;12658394;23;20201;-72
2022/04/28 06:30:22;;;;;;;12.23;8.23;;;;;;;;;;12657233;23;20296;-70
2022/04/28 06:35:27;;;;;;;14.23;8.38;;;;;;;;;;12682444;23;20663;-70
2022/04/28 06:40:30;;;;;;;12.15;7.85;;;;;;;;;;12659122;23;20256;-71
2022/04/28 06:45:32;;;;;;;16.90;8.30;;;;;;;;;;12680531;23;20607;-71
2022/04/28 06:50:51;;;;;;;10.93;7.95;;;;;;;;;;12658880;23;20189;-71
2022/04/28 06:56:24;;;;;;;12.18;8.48;;;;;;;;;;12641609;23;20212;-70
2022/04/28 07:01:40;;;;;;;16.70;9.00;;;;;;;;;;12680671;23;20737;-70
2022/04/28 07:06:41;;;;;;;15.07;9.13;;;;;;;;;;12680580;23;20585;-71
2022/04/28 07:11:42;;;;;;;17.85;9.30;;;;;;;;;;12680952;23;20176;-70
2022/04/28 07:16:59;;;;;;;13.02;8.85;;;;;;;;;;12681486;23;20239;-71
2022/04/28 07:22:09;;;;;;;9.23;8.30;;;;;;;;;;12680272;23;20232;-71
2022/04/28 07:27:10;;;;;;;14.90;8.80;;;;;;;;;;12680653;23;20207;-71
2022/04/28 07:32:11;;;;;;;14.63;9.15;;;;;;;;;;12680314;23;20207;-70
2022/04/28 07:37:31;;;;;;;13.02;8.90;;;;;;;;;;12657891;23;20189;-70
2022/04/28 07:42:58;;;;;;;15.13;9.40;;;;;;;;;;12644890;23;20634;-71
2022/04/28 07:48:00;;;;;;;10.38;8.68;;;;;;;;;;12657459;23;20267;-70
2022/04/28 07:53:01;;;;;;;13.88;8.90;;;;;;;;;;12680495;23;20635;-70
2022/04/28 07:58:02;;;;;;;10.95;8.63;;;;;;;;;;12680296;23;20241;-71
2022/04/28 08:03:35;;;;;;;14.20;8.82;;;;;;;;;;12657184;23;20643;-71
2022/04/28 08:08:36;;;;;;;9.60;8.50;;;;;;;;;;12658172;23;20173;-71
2022/04/28 08:13:37;;;;;;;8.82;8.13;;;;;;;;;;12656912;23;20184;-70
2022/04/28 08:18:41;;;;;;;9.35;8.48;;;;;;;;;;12660552;23;20227;-69
2022/04/28 08:23:48;;;;;;;14.88;8.77;;;;;;;;;;12683940;23;20643;-70
2022/04/28 08:28:49;;;;;;;10.10;8.40;;;;;;;;;;12685075;23;20187;-70
2022/04/28 08:33:50;;;;;;;16.08;8.95;;;;;;;;;;12682831;23;20212;-70
2022/04/28 08:38:52;;;;;;;11.95;8.60;;;;;;;;;;12660459;23;20239;-69
2022/04/28 08:43:56;;;;;;;12.27;8.65;;;;;;;;;;12683747;23;20200;-66
2022/04/28 08:48:57;;;;;;;9.13;7.65;;;;;;;;;;12684470;23;20185;-69
2022/04/28 08:54:01;;;;;;;9.68;8.77;;;;;;;;;;12662045;23;20180;-69
2022/04/28 08:59:02;;;;;;;10.15;9.18;;;;;;;;;;12683433;23;20193;-69
2022/04/28 09:04:05;;;;;;;8.30;7.57;;;;;;;;;;12682863;23;20204;-68
2022/04/28 09:09:26;;;;;;;11.30;8.45;;;;;;;;;;12659929;23;20631;-69
2022/04/28 09:14:46;;;;;;;9.10;8.18;;;;;;;;;;12660640;23;20578;-69
2022/04/28 09:20:02;;;;;;;10.10;8.30;;;;;;;;;;12684084;23;20192;-69
2022/04/28 09:25:12;;;;;;;9.23;7.82;;;;;;;;;;12682253;23;20193;-69
2022/04/28 09:30:14;;;;;;;9.75;8.27;;;;;;;;;;12681860;23;20192;-67
2022/04/28 09:35:28;;;;;;;11.75;8.10;;;;;;;;;;12682537;23;20580;-69
2022/04/28 09:46:11;;;;;;;13.77;8.18;;;;;;;;;;12658442;23;20208;-68
2022/04/28 09:51:13;;;;;;;8.35;7.65;;;;;;;;;;12682582;23;20181;-68
2022/04/28 09:56:34;;;;;;;12.07;8.07;;;;;;;;;;12660463;23;20188;-68
2022/04/28 10:01:52;;;;;;;8.43;7.57;;;;;;;;;;12682089;23;20228;-68
2022/04/28 10:06:55;;;;;;;7.70;7.03;;;;;;;;;;12657789;23;20284;-68
2022/04/28 10:12:01;;;;;;;7.95;7.20;;;;;;;;;;12680475;23;20622;-68
2022/04/28 10:17:12;;;;;;;8.85;7.95;;;;;;;;;;12681156;23;20200;-69
2022/04/28 10:22:15;;;;;;;8.27;7.05;;;;;;;;;;12680902;23;20185;-68
2022/04/28 10:33:02;;;;;;;9.38;7.70;;;;;;;;;;12658128;23;20208;-68
2022/04/28 10:38:20;;;;;;;7.80;7.05;;;;;;;;;;12682627;23;20774;-69
2022/04/28 10:43:33;;;;;;;8.43;7.65;;;;;;;;;;12658579;23;20207;-65
2022/04/28 10:48:44;;;;;;;8.48;7.78;;;;;;;;;;12659614;23;20196;-68
2022/04/28 10:54:02;;;;;;;8.98;8.05;;;;;;;;;;12658029;23;20620;-67
2022/04/28 10:59:23;;;;;;;12.80;7.70;;;;;;;;;;12658686;23;20192;-67
2022/04/28 11:04:25;;;;;;;7.15;6.47;;;;;;;;;;12656127;23;20204;-67
2022/04/28 11:09:33;;;;;;;10.10;6.95;;;;;;;;;;12681216;23;20556;-67
2022/04/28 11:14:44;;;;;;;7.35;6.85;;;;;;;;;;12658450;23;20304;-67
2022/04/28 11:19:46;;;;;;;11.02;7.35;;;;;;;;;;12656292;23;20207;-68
2022/04/28 11:24:48;;;;;;;9.55;7.05;;;;;;;;;;12657479;23;20197;-68
2022/04/28 11:30:05;;;;;;;9.82;6.15;;;;;;;;;;12682239;23;20548;-68
2022/04/28 11:35:06;;;;;;;8.65;7.07;;;;;;;;;;12657311;23;20598;-67
2022/04/28 11:40:12;;;;;;;7.65;6.35;;;;;;;;;;12658034;23;20262;-68
2022/04/28 11:45:15;;;;;;;7.25;6.60;;;;;;;;;;12657503;23;20207;-68
2022/04/28 11:50:34;;;;;;;7.32;6.40;;;;;;;;;;12658552;23;20185;-68
2022/04/28 11:55:38;;;;;;;7.32;6.78;;;;;;;;;;12657116;23;20260;-67
2022/04/28 12:00:43;;;;;;;9.68;6.90;;;;;;;;;;12657522;23;20201;-68
2022/04/28 12:05:44;;;;;;;6.57;6.10;;;;;;;;;;12681638;23;22310;-69
2022/04/28 12:16:06;;;;;;;7.22;6.15;;;;;;;;;;12657658;23;20177;-68
2022/04/28 12:21:18;;;;;;;9.63;8.32;;;;;;;;;;12657506;23;20353;-67
2022/04/28 12:26:20;;;;;;;8.98;7.05;;;;;;;;;;12657847;23;20196;-67
2022/04/28 12:31:31;;;;;;;8.30;6.35;;;;;;;;;;12656082;23;20203;-67
2022/04/28 12:36:43;;;;;;;6.63;5.95;;;;;;;;;;12657000;23;20185;-67
2022/04/28 12:41:45;;;;;;;7.18;6.63;;;;;;;;;;12656872;23;20212;-67
2022/04/28 12:46:46;;;;;;;6.88;5.70;;;;;;;;;;12657472;23;20193;-66
2022/04/28 12:51:48;;;;;;;7.45;6.85;;;;;;;;;;12655124;23;20196;-67
2022/04/28 12:57:00;;;;;;;9.40;7.80;;;;;;;;;;12656713;23;20188;-67
2022/04/28 13:02:01;;;;;;;8.57;6.65;;;;;;;;;;12657108;23;20259;-67
2022/04/28 13:07:04;;;;;;;7.25;6.57;;;;;;;;;;12660178;23;20264;-67
2022/04/28 13:12:06;;;;;;;7.43;6.20;;;;;;;;;;12660416;23;20224;-67
2022/04/28 13:17:07;;;;;;;7.45;6.25;;;;;;;;;;12661783;23;20193;-67
2022/04/28 13:22:08;;;;;;;6.53;5.78;;;;;;;;;;12683636;23;20291;-67
2022/04/28 13:27:09;;;;;;;6.82;6.13;;;;;;;;;;12659054;23;20296;-67
2022/04/28 13:32:10;;;;;;;7.18;6.65;;;;;;;;;;12659072;23;20200;-67
2022/04/28 13:37:11;;;;;;;6.25;5.72;;;;;;;;;;12660155;23;20255;-67
2022/04/28 13:42:12;;;;;;;8.65;6.57;;;;;;;;;;12659047;23;20232;-67
2022/04/28 13:47:13;;;;;;;9.05;6.38;;;;;;;;;;12660325;23;20203;-67
2022/04/28 13:52:14;;;;;;;7.85;6.22;;;;;;;;;;12658372;23;20212;-68
2022/04/28 13:57:15;;;;;;;7.47;6.68;;;;;;;;;;12660221;23;20292;-67
2022/04/28 14:02:16;;;;;;;6.80;5.78;;;;;;;;;;12659673;23;20209;-67
2022/04/28 14:07:17;;;;;;;7.57;6.82;;;;;;;;;;12659702;23;20251;-67
2022/04/28 14:12:19;;;;;;;12.68;6.50;;;;;;;;;;12659172;23;20184;-67
2022/04/28 14:17:20;;;;;;;9.35;6.72;;;;;;;;;;12659427;23;20177;-67
2022/04/28 14:22:21;;;;;;;6.82;5.70;;;;;;;;;;12659786;23;20252;-67
2022/04/28 14:27:22;;;;;;;7.13;6.43;;;;;;;;;;12659900;23;20316;-67
2022/04/28 14:32:24;;;;;;;7.82;6.38;;;;;;;;;;12658116;23;20259;-67
2022/04/28 14:37:25;;;;;;;6.97;5.90;;;;;;;;;;12657996;23;20196;-66
2022/04/28 14:42:26;;;;;;;10.60;5.53;;;;;;;;;;12657846;23;20201;-67
2022/04/28 14:47:27;;;;;;;5.03;4.70;;;;;;;;;;12659173;23;20508;-67
2022/04/28 14:52:29;;;;;;;5.38;4.95;;;;;;;;;;12652328;23;20247;-66
2022/04/28 14:57:31;;;;;;;5.63;4.80;;;;;;;;;;12656045;23;20184;-68
2022/04/28 15:02:32;;;;;;;7.55;4.28;;;;;;;;;;12655224;23;20228;-68
2022/04/28 15:07:34;;;;;;;6.35;5.22;;;;;;;;;;12657093;23;20196;-67
2022/04/28 15:12:37;;;;;;;6.95;4.78;;;;;;;;;;12657770;23;20185;-67
2022/04/28 15:17:39;;;;;;;5.63;5.20;;;;;;;;;;12660552;23;20184;-68
2022/04/28 15:22:40;;;;;;;5.43;5.03;;;;;;;;;;12654868;23;20653;-67
2022/04/28 15:27:42;;;;;;;5.72;5.43;;;;;;;;;;12657140;23;20209;-66
2022/04/28 15:32:43;;;;;;;6.88;5.40;;;;;;;;;;12657462;23;20288;-67
2022/04/28 15:37:44;;;;;;;7.05;5.28;;;;;;;;;;12660366;23;20201;-67
2022/04/28 15:42:49;;;;;;;6.28;5.30;;;;;;;;;;12656837;23;20312;-68
2022/04/28 15:47:50;;;;;;;9.45;6.18;;;;;;;;;;12655496;23;20228;-68
2022/04/28 15:52:51;;;;;;;7.63;5.43;;;;;;;;;;12632037;23;20271;-67
2022/04/28 15:57:52;;;;;;;7.80;5.72;;;;;;;;;;12655843;23;20203;-67
2022/04/28 16:02:53;;;;;;;6.57;4.85;;;;;;;;;;12655641;23;20299;-67
2022/04/28 16:07:54;;;;;;;6.38;5.13;;;;;;;;;;12659844;23;20328;-67
2022/04/28 16:12:55;;;;;;;5.18;4.63;;;;;;;;;;12660173;23;20181;-66
2022/04/28 16:17:56;;;;;;;5.47;4.68;;;;;;;;;;12659233;23;20255;-67
2022/04/28 16:22:59;;;;;;;5.85;4.25;;;;;;;;;;12660780;23;20184;-68
2022/04/28 16:28:00;;;;;;;9.73;4.60;;;;;;;;;;12659232;23;20224;-67
2022/04/28 16:33:03;;;;;;;7.15;3.90;;;;;;;;;;12655389;23;20211;-67
2022/04/28 16:38:04;;;;;;;4.78;3.10;;;;;;;;;;12634513;23;20219;-67
2022/04/28 16:43:06;;;;;;;3.63;3.30;;;;;;;;;;12660518;23;20248;-67
2022/04/28 16:48:07;;;;;;;5.88;3.38;;;;;;;;;;12658216;23;20917;-66
2022/04/28 16:53:08;;;;;;;4.68;3.25;;;;;;;;;;12657345;23;20185;-68
2022/04/28 16:58:09;;;;;;;3.38;2.83;;;;;;;;;;12657277;23;20632;-67
2022/04/28 17:08:31;;;;;;;4.30;2.55;;;;;;;;;;12661020;23;20268;-67
2022/04/28 17:13:32;;;;;;;5.63;2.50;;;;;;;;;;12663581;23;20181;-67
2022/04/28 17:18:33;;;;;;;4.32;2.80;;;;;;;;;;12663397;23;20183;-67
2022/04/28 17:23:35;;;;;;;3.67;2.92;;;;;;;;;;12638076;23;20240;-66
2022/04/28 17:28:36;;;;;;;4.75;3.00;;;;;;;;;;12663188;23;20179;-67
2022/04/28 17:33:37;;;;;;;3.33;2.83;;;;;;;;;;12658369;23;20247;-67
2022/04/28 17:38:38;;;;;;;3.22;2.72;;;;;;;;;;12664838;23;20185;-68
2022/04/28 17:43:43;;;;;;;7.60;2.90;;;;;;;;;;12661984;23;20205;-67
2022/04/28 17:48:44;;;;;;;7.43;2.83;;;;;;;;;;12662295;23;20180;-69
2022/04/28 17:53:45;;;;;;;4.95;2.30;;;;;;;;;;12661558;23;20180;-68
2022/04/28 18:04:07;;;;;;;7.97;2.65;;;;;;;;;;12632186;23;20208;-65
2022/04/28 18:09:10;;;;;;;5.95;2.92;;;;;;;;;;12663509;23;20811;-64
2022/04/28 18:14:11;;;;;;;9.65;2.45;;;;;;;;;;12661065;23;20288;-67
2022/04/28 18:19:13;;;;;;;2.95;2.65;;;;;;;;;;12662828;23;20191;-67
2022/04/28 18:24:14;;;;;;;6.30;2.60;;;;;;;;;;12661869;23;20195;-67
2022/04/28 18:29:16;;;;;;;3.88;2.58;;;;;;;;;;12636719;23;20188;-68
2022/04/28 18:34:17;;;;;;;6.32;2.50;;;;;;;;;;12660875;23;20201;-67
2022/04/28 18:44:41;;;;;;;6.15;2.83;;;;;;;;;;12661157;23;20694;-68
2022/04/28 18:49:43;;;;;;;5.18;2.10;;;;;;;;;;12660063;23;20264;-69
2022/04/28 18:54:44;;;;;;;7.60;2.65;;;;;;;;;;12659752;23;20181;-69
2022/04/28 18:59:46;;;;;;;4.03;2.38;;;;;;;;;;12659162;23;20200;-69
2022/04/28 19:04:48;;;;;;;3.03;2.70;;;;;;;;;;12657267;23;20287;-69
2022/04/28 19:09:50;;;;;;;6.32;2.90;;;;;;;;;;12661232;23;20251;-69
2022/04/28 19:14:51;;;;;;;7.13;3.25;;;;;;;;;;12660567;23;20177;-69
2022/04/28 19:19:53;;;;;;;8.70;3.30;;;;;;;;;;12661256;23;20180;-69
2022/04/28 19:24:54;;;;;;;5.32;3.72;;;;;;;;;;12634749;23;20778;-69
2022/04/28 19:29:56;;;;;;;5.40;3.50;;;;;;;;;;12658805;23;20192;-69
2022/04/28 19:34:57;;;;;;;6.03;3.50;;;;;;;;;;12660878;23;20280;-69
2022/04/28 19:39:58;;;;;;;5.63;3.60;;;;;;;;;;12662218;23;20181;-69
2022/04/28 19:45:00;;;;;;;5.57;3.50;;;;;;;;;;12635250;23;20651;-70
2022/04/28 19:50:01;;;;;;;10.20;3.17;;;;;;;;;;12661735;23;20180;-69
2022/04/28 19:55:02;;;;;;;6.57;3.50;;;;;;;;;;12660675;23;20193;-70
2022/04/28 20:00:04;;;;;;;7.25;3.63;;;;;;;;;;12660804;23;20192;-70
2022/04/28 20:05:14;;;;;;;6.18;3.78;;;;;;;;;;12659139;23;20200;-69
2022/04/28 20:10:15;;;;;;;4.85;3.60;;;;;;;;;;12683069;23;20181;-70
2022/04/28 20:15:18;;;;;;;3.95;3.65;;;;;;;;;;12658606;23;20796;-70
2022/04/28 20:20:20;;;;;;;3.90;3.25;;;;;;;;;;12659238;23;20594;-69
2022/04/28 20:25:21;;;;;;;9.73;3.53;;;;;;;;;;12657865;23;20280;-70
2022/04/28 20:30:23;;;;;;;4.20;3.35;;;;;;;;;;12654858;23;20594;-70
2022/04/28 20:35:24;;;;;;;6.15;3.80;;;;;;;;;;12655932;23;20184;-70
2022/04/28 20:40:27;;;;;;;4.25;3.92;;;;;;;;;;12656262;23;20189;-70
2022/04/28 20:45:30;;;;;;;5.20;3.80;;;;;;;;;;12654228;23;20220;-70
2022/04/28 20:50:34;;;;;;;4.03;3.63;;;;;;;;;;12657989;23;20263;-71
2022/04/28 20:55:39;;;;;;;3.92;3.58;;;;;;;;;;12656721;23;20958;-70
2022/04/28 21:00:40;;;;;;;4.65;4.00;;;;;;;;;;12656025;23;20204;-70
2022/04/28 21:05:41;;;;;;;6.03;4.07;;;;;;;;;;12657622;23;20276;-70
2022/04/28 21:10:43;;;;;;;7.05;4.63;;;;;;;;;;12656709;23;20287;-70
2022/04/28 21:15:44;;;;;;;6.60;4.57;;;;;;;;;;12655827;23;20199;-70
2022/04/28 21:20:45;;;;;;;6.75;4.97;;;;;;;;;;12656962;23;20492;-70
2022/04/28 21:25:46;;;;;;;7.38;5.38;;;;;;;;;;12680409;23;20199;-70
2022/04/28 21:30:47;;;;;;;8.13;5.10;;;;;;;;;;12658636;23;20204;-71
2022/04/28 21:35:48;;;;;;;6.30;5.00;;;;;;;;;;12658620;23;20212;-70
2022/04/28 21:40:50;;;;;;;6.45;5.18;;;;;;;;;;12661839;23;20223;-69
2022/04/28 21:45:51;;;;;;;6.10;5.32;;;;;;;;;;12657402;23;20211;-69
2022/04/28 21:50:52;;;;;;;5.97;4.55;;;;;;;;;;12660479;23;20176;-70
2022/04/28 21:55:53;;;;;;;6.00;4.97;;;;;;;;;;12659666;23;20187;-69
2022/04/28 22:00:54;;;;;;;5.05;4.65;;;;;;;;;;12658773;23;20224;-70
2022/04/28 22:11:17;;;;;;;5.18;4.78;;;;;;;;;;12660329;23;20239;-69
2022/04/28 22:16:18;;;;;;;5.95;5.38;;;;;;;;;;12658584;23;20523;-69
2022/04/28 22:21:21;;;;;;;5.78;5.28;;;;;;;;;;12658869;23;20219;-69
2022/04/28 22:26:22;;;;;;;6.57;5.63;;;;;;;;;;12659369;23;20216;-70
2022/04/28 22:31:23;;;;;;;6.78;5.68;;;;;;;;;;12658366;23;20233;-70
2022/04/28 22:36:24;;;;;;;6.25;5.60;;;;;;;;;;12658194;23;20185;-70
2022/04/28 22:41:25;;;;;;;5.80;5.40;;;;;;;;;;12658901;23;20209;-69
2022/04/28 22:46:26;;;;;;;6.32;5.70;;;;;;;;;;12661216;23;20192;-69
2022/04/28 22:51:27;;;;;;;9.75;6.53;;;;;;;;;;12635799;23;20180;-69
2022/04/28 22:56:28;;;;;;;11.63;5.93;;;;;;;;;;12661397;23;20191;-70
2022/04/28 23:01:29;;;;;;;13.55;5.53;;;;;;;;;;12660119;23;20259;-70
2022/04/28 23:06:32;;;;;;;5.82;5.05;;;;;;;;;;12658762;23;20196;-70
2022/04/28 23:11:33;;;;;;;5.20;4.75;;;;;;;;;;12659623;23;20188;-71
2022/04/28 23:16:34;;;;;;;4.82;4.43;;;;;;;;;;12632678;23;20512;-70
2022/04/28 23:21:35;;;;;;;5.18;4.22;;;;;;;;;;12660709;23;20208;-70
2022/04/28 23:26:36;;;;;;;6.72;4.50;;;;;;;;;;12660162;23;20192;-70
2022/04/28 23:31:38;;;;;;;5.72;4.95;;;;;;;;;;12659696;23;20201;-71
2022/04/28 23:47:20;;;;;;;6.32;5.15;;;;;;;;;;12660012;23;20584;-71
2022/04/28 23:54:49;;;;;;;7.35;5.22;;;;;;;;;;12656639;23;20181;-70
2022/04/28 23:57:46;;;;;;;4.55;4.18;;;;;;;;;;12658428;23;20208;-71
